createdAt,value
2018-09-05T00:01:14.939Z,18.20
2018-09-05T00:03:42.067Z,18.20
2018-09-05T00:06:09.190Z,18.10
2018-09-05T00:08:36.345Z,18.10
2018-09-05T00:11:03.517Z,18.10
2018-09-05T00:13:30.659Z,18.10
2018-09-05T00:15:57.810Z,18.00
2018-09-05T00:18:24.963Z,18.00
2018-09-05T00:21:19.197Z,17.90
2018-09-05T00:23:46.393Z,17.90
2018-09-05T00:26:13.562Z,17.90
2018-09-05T00:28:40.699Z,17.90
2018-09-05T00:31:09.854Z,17.80
2018-09-05T00:33:37.114Z,17.70
2018-09-05T00:36:04.368Z,17.60
2018-09-05T00:38:31.624Z,17.60
2018-09-05T00:40:58.742Z,17.70
2018-09-05T00:43:25.992Z,17.70
2018-09-05T00:45:53.123Z,17.90
2018-09-05T00:48:20.258Z,18.00
2018-09-05T00:50:47.385Z,17.70
2018-09-05T00:53:14.517Z,17.70
2018-09-05T00:55:41.651Z,17.60
2018-09-05T00:58:08.773Z,17.60
2018-09-05T01:00:35.978Z,17.70
2018-09-05T01:03:03.100Z,17.70
2018-09-05T01:05:30.214Z,17.70
2018-09-05T01:07:57.364Z,17.70
2018-09-05T01:10:24.591Z,17.60
2018-09-05T01:12:51.740Z,17.60
2018-09-05T01:15:18.853Z,17.50
2018-09-05T01:17:45.961Z,17.40
2018-09-05T01:20:13.101Z,17.40
2018-09-05T01:22:40.237Z,17.30
2018-09-05T01:25:07.379Z,17.30
2018-09-05T01:27:34.555Z,17.20
2018-09-05T01:30:01.740Z,17.30
2018-09-05T01:32:28.803Z,17.20
2018-09-05T01:34:55.933Z,17.10
2018-09-05T01:37:23.074Z,17.10
2018-09-05T01:39:50.254Z,17.10
2018-09-05T01:42:17.365Z,17.10
2018-09-05T01:44:44.518Z,17.00
2018-09-05T01:47:11.651Z,17.10
2018-09-05T01:49:38.777Z,17.00
2018-09-05T01:52:05.887Z,17.00
2018-09-05T01:54:32.986Z,17.00
2018-09-05T01:57:00.094Z,17.10
2018-09-05T01:59:27.226Z,17.00
2018-09-05T02:01:54.383Z,16.90
2018-09-05T02:04:21.531Z,16.90
2018-09-05T02:06:48.742Z,16.90
2018-09-05T02:09:15.853Z,16.90
2018-09-05T02:11:43.312Z,16.90
2018-09-05T02:14:11.106Z,16.90
2018-09-05T02:16:38.471Z,16.90
2018-09-05T02:19:05.616Z,16.90
2018-09-05T02:21:33.003Z,16.90
2018-09-05T02:24:00.477Z,16.90
2018-09-05T02:26:27.591Z,16.90
2018-09-05T02:28:54.690Z,16.90
2018-09-05T02:31:21.814Z,16.90
2018-09-05T02:33:48.965Z,16.80
2018-09-05T02:36:16.279Z,16.70
2018-09-05T02:38:43.763Z,16.70
2018-09-05T02:41:10.912Z,16.60
2018-09-05T02:43:43.787Z,16.60
2018-09-05T02:46:10.918Z,16.60
2018-09-05T02:48:38.091Z,16.50
2018-09-05T02:51:05.198Z,16.60
2018-09-05T02:53:32.306Z,16.60
2018-09-05T02:56:01.919Z,16.50
2018-09-05T02:58:29.848Z,16.40
2018-09-05T03:00:57.114Z,16.40
2018-09-05T03:03:24.315Z,16.40
2018-09-05T03:05:51.440Z,16.40
2018-09-05T03:08:18.595Z,16.40
2018-09-05T03:10:45.763Z,16.30
2018-09-05T03:13:12.968Z,16.30
2018-09-05T03:15:40.131Z,16.30
2018-09-05T03:18:07.250Z,16.20
2018-09-05T03:20:34.355Z,16.20
2018-09-05T03:23:01.518Z,16.20
2018-09-05T03:25:28.695Z,16.10
2018-09-05T03:27:55.812Z,16.10
2018-09-05T03:30:22.930Z,16.10
2018-09-05T03:32:50.169Z,16.10
2018-09-05T03:35:17.292Z,15.90
2018-09-05T03:37:44.467Z,16.00
2018-09-05T03:40:11.641Z,16.00
2018-09-05T03:42:38.801Z,16.00
2018-09-05T03:45:06.050Z,15.90
2018-09-05T03:47:33.150Z,16.00
2018-09-05T03:50:00.253Z,15.90
2018-09-05T03:52:27.437Z,15.90
2018-09-05T03:54:54.535Z,15.80
2018-09-05T03:57:21.659Z,15.80
2018-09-05T03:59:48.814Z,15.80
2018-09-05T04:02:15.998Z,15.80
2018-09-05T04:04:43.258Z,15.80
2018-09-05T04:07:10.379Z,15.70
2018-09-05T04:09:37.483Z,15.70
2018-09-05T04:12:04.729Z,15.70
2018-09-05T04:14:31.831Z,15.70
2018-09-05T04:16:58.935Z,15.70
2018-09-05T04:19:26.128Z,15.70
2018-09-05T04:21:53.242Z,15.70
2018-09-05T04:24:20.366Z,15.70
2018-09-05T04:26:47.475Z,15.70
2018-09-05T04:29:14.662Z,15.70
2018-09-05T04:31:41.813Z,15.80
2018-09-05T04:34:08.925Z,15.70
2018-09-05T04:36:36.022Z,15.60
2018-09-05T04:39:05.308Z,15.70
2018-09-05T04:41:32.419Z,15.60
2018-09-05T04:43:59.541Z,15.60
2018-09-05T04:46:26.665Z,15.60
2018-09-05T04:48:53.835Z,15.60
2018-09-05T04:51:20.954Z,15.60
2018-09-05T04:53:48.147Z,15.60
2018-09-05T04:56:15.367Z,15.70
2018-09-05T04:58:42.564Z,15.70
2018-09-05T05:01:09.701Z,15.70
2018-09-05T05:03:36.842Z,15.70
2018-09-05T05:06:04.257Z,15.70
2018-09-05T05:08:31.261Z,15.70
2018-09-05T05:10:58.380Z,15.80
2018-09-05T05:13:25.508Z,15.80
2018-09-05T05:15:52.620Z,16.00
2018-09-05T05:18:19.726Z,16.10
2018-09-05T05:20:53.227Z,16.20
2018-09-05T05:23:20.375Z,16.30
2018-09-05T05:25:47.548Z,16.40
2018-09-05T05:28:14.957Z,16.50
2018-09-05T05:30:42.082Z,16.60
2018-09-05T05:33:09.183Z,16.80
2018-09-05T05:35:36.293Z,17.20
2018-09-05T05:38:03.442Z,17.50
2018-09-05T05:40:30.585Z,17.40
2018-09-05T05:42:57.705Z,17.40
2018-09-05T05:45:24.839Z,17.60
2018-09-05T05:47:51.967Z,18.00
2018-09-05T05:50:19.137Z,17.90
2018-09-05T05:52:46.287Z,18.10
2018-09-05T05:55:13.516Z,18.30
2018-09-05T05:57:40.595Z,18.40
2018-09-05T06:00:07.806Z,18.60
2018-09-05T06:02:34.951Z,19.10
2018-09-05T06:05:02.098Z,20.50
2018-09-05T06:07:29.209Z,21.40
2018-09-05T06:09:56.336Z,20.80
2018-09-05T06:12:23.444Z,20.60
2018-09-05T06:14:50.568Z,20.50
2018-09-05T06:17:17.752Z,20.30
2018-09-05T06:19:44.951Z,20.30
2018-09-05T06:22:12.087Z,20.40
2018-09-05T06:24:39.295Z,20.50
2018-09-05T06:27:06.388Z,20.50
2018-09-05T06:29:33.514Z,21.40
2018-09-05T06:32:00.622Z,22.80
2018-09-05T06:34:27.763Z,24.60
2018-09-05T06:36:54.916Z,25.80
2018-09-05T06:39:22.022Z,26.10
2018-09-05T06:41:49.134Z,27.20
2018-09-05T06:44:16.321Z,27.20
2018-09-05T06:46:43.504Z,28.40
2018-09-05T06:49:10.659Z,28.80
2018-09-05T06:51:37.780Z,28.90
2018-09-05T06:54:04.927Z,28.40
2018-09-05T06:56:32.127Z,29.30
2018-09-05T06:58:59.270Z,30.60
2018-09-05T07:01:26.400Z,31.70
2018-09-05T07:03:53.529Z,31.70
2018-09-05T07:06:20.627Z,31.40
2018-09-05T07:08:47.882Z,32.00
2018-09-05T07:11:14.959Z,32.30
2018-09-05T07:13:42.104Z,32.50
2018-09-05T07:16:09.241Z,33.20
2018-09-05T07:18:36.410Z,33.30
2018-09-05T07:21:06.655Z,33.60
2018-09-05T07:23:30.661Z,33.60
2018-09-05T07:25:57.776Z,34.10
2018-09-05T07:28:24.883Z,34.60
2018-09-05T07:30:52.007Z,35.10
2018-09-05T07:33:19.108Z,34.70
2018-09-05T07:35:46.359Z,34.80
2018-09-05T07:38:13.559Z,35.10
2018-09-05T07:40:40.733Z,35.40
2018-09-05T07:43:07.845Z,35.80
2018-09-05T07:45:35.006Z,36.20
2018-09-05T07:48:02.411Z,36.20
2018-09-05T07:50:29.540Z,36.10
2018-09-05T07:52:56.652Z,35.90
2018-09-05T07:55:23.759Z,35.90
2018-09-05T07:57:50.903Z,35.80
2018-09-05T08:00:18.088Z,36.80
2018-09-05T08:02:45.259Z,36.60
2018-09-05T08:05:12.405Z,36.60
2018-09-05T08:07:39.517Z,36.70
2018-09-05T08:10:06.675Z,36.70
2018-09-05T08:12:33.797Z,36.90
2018-09-05T08:15:00.923Z,37.50
2018-09-05T08:17:28.043Z,37.50
2018-09-05T08:19:55.170Z,37.20
2018-09-05T08:22:22.292Z,37.20
2018-09-05T08:24:49.938Z,35.60
2018-09-05T08:27:20.510Z,35.70
2018-09-05T08:29:47.717Z,34.70
2018-09-05T08:32:14.892Z,35.50
2018-09-05T08:34:42.088Z,36.10
2018-09-05T08:37:09.444Z,34.70
2018-09-05T08:39:36.299Z,34.50
2018-09-05T08:42:03.537Z,32.80
2018-09-05T08:44:30.659Z,34.10
2018-09-05T08:46:57.806Z,33.50
2018-09-05T08:49:24.844Z,33.70
2018-09-05T08:51:51.983Z,34.40
2018-09-05T08:54:19.117Z,34.80
2018-09-05T08:56:46.263Z,35.10
2018-09-05T08:59:13.475Z,34.90
2018-09-05T09:01:40.627Z,34.60
2018-09-05T09:04:07.730Z,33.90
2018-09-05T09:06:34.839Z,32.80
2018-09-05T09:09:02.116Z,32.10
2018-09-05T09:11:29.284Z,31.70
2018-09-05T09:13:56.426Z,31.30
2018-09-05T09:16:23.554Z,30.40
2018-09-05T09:18:50.717Z,29.40
2018-09-05T09:21:17.954Z,29.30
2018-09-05T09:23:45.156Z,29.30
2018-09-05T09:26:12.331Z,29.10
2018-09-05T09:28:39.453Z,28.90
2018-09-05T09:31:06.787Z,28.50
2018-09-05T09:33:33.975Z,28.10
2018-09-05T09:36:01.136Z,28.10
2018-09-05T09:38:28.285Z,28.10
2018-09-05T09:40:55.426Z,28.00
2018-09-05T09:43:22.526Z,28.00
2018-09-05T09:45:49.643Z,27.90
2018-09-05T09:48:16.814Z,27.90
2018-09-05T09:50:44.247Z,27.90
2018-09-05T09:53:11.443Z,27.70
2018-09-05T09:55:38.534Z,27.70
2018-09-05T09:58:05.656Z,27.80
2018-09-05T10:00:38.623Z,27.70
2018-09-05T10:03:11.586Z,27.70
2018-09-05T10:05:44.465Z,27.80
2018-09-05T10:08:17.480Z,27.60
2018-09-05T10:10:50.530Z,27.60
2018-09-05T10:13:23.456Z,27.60
2018-09-05T10:15:56.303Z,27.70
2018-09-05T10:18:25.375Z,27.70
2018-09-05T10:20:52.561Z,27.70
2018-09-05T10:23:19.672Z,27.70
2018-09-05T10:25:46.843Z,27.50
2018-09-05T10:28:14.097Z,27.50
2018-09-05T10:30:41.254Z,27.50
2018-09-05T10:33:08.432Z,27.60
2018-09-05T10:35:35.551Z,27.60
2018-09-05T10:38:02.743Z,27.70
2018-09-05T10:40:29.811Z,27.60
2018-09-05T10:42:56.911Z,27.70
2018-09-05T10:45:24.016Z,27.70
2018-09-05T10:47:51.127Z,27.50
2018-09-05T10:50:18.511Z,27.20
2018-09-05T10:52:45.928Z,27.20
2018-09-05T10:55:13.054Z,27.40
2018-09-05T10:57:40.211Z,27.60
2018-09-05T11:00:07.351Z,27.80
2018-09-05T11:02:34.471Z,27.90
2018-09-05T11:05:01.669Z,27.40
2018-09-05T11:07:28.826Z,27.30
2018-09-05T11:09:55.961Z,27.30
2018-09-05T11:12:23.062Z,27.60
2018-09-05T11:14:50.179Z,27.80
2018-09-05T11:17:17.360Z,27.90
2018-09-05T11:19:44.547Z,27.70
2018-09-05T11:22:11.669Z,27.90
2018-09-05T11:24:38.814Z,27.80
2018-09-05T11:27:06.007Z,27.80
2018-09-05T11:29:33.129Z,27.80
2018-09-05T11:32:00.216Z,27.90
2018-09-05T11:34:27.331Z,27.70
2018-09-05T11:36:54.492Z,27.60
2018-09-05T11:39:21.548Z,27.60
2018-09-05T11:41:48.715Z,27.70
2018-09-05T11:44:16.003Z,27.50
2018-09-05T11:46:43.186Z,27.60
2018-09-05T11:49:10.313Z,27.50
2018-09-05T11:51:37.464Z,27.30
2018-09-05T11:54:05.254Z,27.30
2018-09-05T11:56:32.379Z,27.40
2018-09-05T11:58:59.499Z,27.50
2018-09-05T12:01:26.619Z,27.50
2018-09-05T12:03:53.783Z,27.50
2018-09-05T12:06:20.920Z,27.60
2018-09-05T12:08:48.130Z,27.60
2018-09-05T12:11:15.302Z,27.50
2018-09-05T12:13:42.444Z,27.30
2018-09-05T12:16:09.561Z,27.30
2018-09-05T12:18:36.682Z,27.30
2018-09-05T12:21:03.799Z,27.30
2018-09-05T12:23:30.923Z,27.30
2018-09-05T12:25:58.091Z,27.30
2018-09-05T12:28:25.238Z,27.40
2018-09-05T12:30:52.411Z,27.40
2018-09-05T12:33:19.558Z,27.40
2018-09-05T12:35:46.797Z,27.50
2018-09-05T12:38:14.101Z,27.60
2018-09-05T12:40:41.257Z,27.60
2018-09-05T12:43:08.379Z,27.40
2018-09-05T12:45:35.486Z,27.30
2018-09-05T12:48:02.590Z,27.30
2018-09-05T12:50:29.703Z,27.30
2018-09-05T12:52:56.830Z,27.30
2018-09-05T12:55:24.004Z,27.40
2018-09-05T12:57:51.111Z,27.50
2018-09-05T13:00:18.316Z,27.50
2018-09-05T13:02:45.589Z,27.40
2018-09-05T13:05:12.800Z,27.40
2018-09-05T13:07:39.912Z,27.50
2018-09-05T13:10:07.071Z,27.40
2018-09-05T13:12:34.367Z,27.50
2018-09-05T13:15:01.512Z,27.50
2018-09-05T13:17:28.619Z,27.70
2018-09-05T13:19:55.728Z,27.80
2018-09-05T13:22:22.847Z,27.90
2018-09-05T13:24:50.000Z,28.00
2018-09-05T13:27:17.256Z,28.00
2018-09-05T13:29:44.453Z,28.00
2018-09-05T13:32:11.636Z,28.00
2018-09-05T13:34:38.965Z,27.90
2018-09-05T13:37:06.151Z,27.90
2018-09-05T13:39:33.255Z,27.80
2018-09-05T13:42:00.371Z,27.80
2018-09-05T13:44:27.494Z,27.70
2018-09-05T13:46:54.615Z,27.80
2018-09-05T13:49:21.774Z,27.80
2018-09-05T13:51:54.626Z,27.80
2018-09-05T13:54:21.767Z,27.80
2018-09-05T13:56:49.175Z,27.80
2018-09-05T13:59:16.350Z,27.80
2018-09-05T14:01:43.694Z,27.90
2018-09-05T14:04:10.835Z,27.80
2018-09-05T14:06:37.957Z,27.70
2018-09-05T14:09:07.819Z,27.50
2018-09-05T14:11:34.930Z,27.60
2018-09-05T14:14:02.092Z,27.70
2018-09-05T14:16:29.214Z,27.70
2018-09-05T14:18:56.331Z,27.70
2018-09-05T14:21:23.455Z,27.80
2018-09-05T14:23:50.590Z,27.80
2018-09-05T14:26:17.747Z,27.80
2018-09-05T14:28:44.906Z,27.70
2018-09-05T14:31:12.066Z,27.80
2018-09-05T14:33:39.208Z,27.80
2018-09-05T14:36:06.407Z,27.80
2018-09-05T14:38:33.523Z,27.80
2018-09-05T14:41:00.668Z,27.80
2018-09-05T14:43:27.793Z,27.70
2018-09-05T14:45:54.898Z,27.70
2018-09-05T14:48:22.132Z,27.60
2018-09-05T14:50:49.259Z,27.60
2018-09-05T14:53:16.495Z,27.60
2018-09-05T14:55:43.649Z,27.60
2018-09-05T14:58:10.757Z,27.70
2018-09-05T15:00:37.877Z,27.60
2018-09-05T15:03:05.068Z,27.50
2018-09-05T15:05:32.183Z,27.40
2018-09-05T15:07:59.320Z,27.50
2018-09-05T15:10:26.469Z,27.40
2018-09-05T15:12:53.617Z,27.40
2018-09-05T15:15:20.864Z,27.50
2018-09-05T15:17:48.075Z,27.40
2018-09-05T15:20:15.234Z,27.50
2018-09-05T15:22:42.353Z,27.50
2018-09-05T15:25:09.734Z,27.50
2018-09-05T15:27:36.845Z,27.50
2018-09-05T15:30:04.531Z,27.50
2018-09-05T15:32:31.680Z,27.60
2018-09-05T15:34:58.825Z,27.50
2018-09-05T15:37:25.955Z,27.40
2018-09-05T15:39:53.077Z,27.30
2018-09-05T15:42:20.222Z,27.20
2018-09-05T15:44:47.487Z,27.10
2018-09-05T15:47:14.808Z,27.10
2018-09-05T15:49:42.479Z,27.10
2018-09-05T15:52:09.609Z,27.10
2018-09-05T15:54:36.742Z,27.10
2018-09-05T15:57:03.879Z,27.10
2018-09-05T15:59:31.006Z,27.10
2018-09-05T16:01:58.212Z,27.10
2018-09-05T16:04:25.688Z,27.20
2018-09-05T16:06:52.851Z,27.10
2018-09-05T16:09:20.018Z,27.00
2018-09-05T16:11:47.351Z,26.90
2018-09-05T16:14:14.703Z,27.00
2018-09-05T16:16:41.819Z,27.00
2018-09-05T16:19:08.935Z,26.90
2018-09-05T16:21:36.119Z,26.90
2018-09-05T16:24:03.312Z,26.80
2018-09-05T16:26:30.506Z,26.80
2018-09-05T16:28:57.813Z,26.70
2018-09-05T16:31:24.959Z,26.60
2018-09-05T16:33:52.090Z,26.60
2018-09-05T16:36:19.288Z,26.50
2018-09-05T16:38:47.554Z,26.50
2018-09-05T16:41:14.754Z,26.40
2018-09-05T16:43:41.954Z,26.40
2018-09-05T16:46:09.088Z,26.40
2018-09-05T16:48:36.301Z,26.30
2018-09-05T16:51:03.387Z,26.30
2018-09-05T16:53:30.531Z,26.20
2018-09-05T16:55:57.630Z,26.30
2018-09-05T16:58:24.762Z,26.30
2018-09-05T17:00:51.876Z,26.10
2018-09-05T17:03:20.628Z,26.10
2018-09-05T17:05:48.414Z,26.10
2018-09-05T17:08:15.673Z,26.00
2018-09-05T17:10:42.831Z,26.00
2018-09-05T17:13:09.950Z,25.90
2018-09-05T17:15:37.108Z,25.90
2018-09-05T17:18:04.536Z,25.80
2018-09-05T17:20:31.639Z,25.70
2018-09-05T17:22:58.782Z,25.60
2018-09-05T17:25:25.900Z,25.30
2018-09-05T17:27:53.038Z,25.30
2018-09-05T17:30:20.376Z,25.10
2018-09-05T17:32:47.583Z,25.00
2018-09-05T17:35:14.876Z,24.90
2018-09-05T17:37:42.053Z,24.80
2018-09-05T17:40:09.198Z,24.70
2018-09-05T17:42:36.285Z,24.50
2018-09-05T17:45:03.494Z,24.40
2018-09-05T17:47:30.661Z,24.20
2018-09-05T17:49:57.775Z,24.00
2018-09-05T17:52:24.986Z,23.90
2018-09-05T17:54:52.115Z,23.80
2018-09-05T17:57:19.310Z,23.60
2018-09-05T17:59:46.502Z,23.50
2018-09-05T18:02:13.740Z,23.50
2018-09-05T18:04:40.848Z,23.50
2018-09-05T18:07:07.985Z,23.30
2018-09-05T18:09:35.128Z,23.20
2018-09-05T18:12:02.319Z,23.00
2018-09-05T18:14:29.535Z,22.90
2018-09-05T18:16:56.650Z,22.80
2018-09-05T18:19:23.775Z,22.70
2018-09-05T18:21:50.929Z,22.70
2018-09-05T18:24:18.243Z,22.50
2018-09-05T18:26:45.468Z,22.40
2018-09-05T18:29:12.603Z,22.20
2018-09-05T18:31:39.736Z,22.10
2018-09-05T18:34:06.848Z,22.00
2018-09-05T18:36:34.021Z,21.90
2018-09-05T18:39:01.110Z,21.80
2018-09-05T18:41:28.239Z,21.80
2018-09-05T18:43:55.348Z,21.70
2018-09-05T18:46:22.475Z,21.70
2018-09-05T18:48:50.581Z,21.60
2018-09-05T18:51:17.746Z,21.50
2018-09-05T18:53:44.957Z,21.50
2018-09-05T18:56:12.099Z,21.40
2018-09-05T18:58:39.263Z,21.40
2018-09-05T19:01:06.397Z,21.30
2018-09-05T19:03:33.542Z,21.30
2018-09-05T19:06:00.684Z,21.20
2018-09-05T19:08:27.947Z,21.20
2018-09-05T19:10:54.965Z,21.20
2018-09-05T19:13:22.112Z,21.20
2018-09-05T19:15:49.311Z,21.30
2018-09-05T19:18:16.552Z,21.40
2018-09-05T19:20:43.724Z,21.30
2018-09-05T19:23:10.868Z,21.20
2018-09-05T19:25:38.094Z,21.10
2018-09-05T19:28:05.253Z,21.20
2018-09-05T19:30:32.396Z,21.10
2018-09-05T19:32:59.535Z,21.00
2018-09-05T19:35:26.707Z,21.00
2018-09-05T19:37:53.867Z,21.00
2018-09-05T19:40:21.003Z,20.90
2018-09-05T19:42:48.189Z,20.90
2018-09-05T19:45:15.374Z,20.90
2018-09-05T19:47:42.500Z,20.90
2018-09-05T19:50:09.682Z,20.90
2018-09-05T19:52:36.763Z,20.90
2018-09-05T19:55:04.006Z,20.90
2018-09-05T19:57:31.191Z,20.80
2018-09-05T19:59:58.353Z,20.70
2018-09-05T20:02:25.486Z,20.70
2018-09-05T20:04:52.794Z,20.70
2018-09-05T20:07:19.943Z,20.70
2018-09-05T20:09:47.327Z,20.60
2018-09-05T20:12:14.603Z,20.40
2018-09-05T20:14:41.772Z,20.40
2018-09-05T20:17:08.938Z,20.30
2018-09-05T20:19:36.287Z,20.20
2018-09-05T20:22:03.439Z,20.30
2018-09-05T20:24:30.588Z,20.20
2018-09-05T20:26:57.726Z,20.20
2018-09-05T20:29:24.834Z,20.30
2018-09-05T20:31:52.127Z,20.20
2018-09-05T20:34:19.287Z,20.20
2018-09-05T20:36:46.503Z,20.20
2018-09-05T20:39:14.586Z,20.20
2018-09-05T20:41:41.689Z,20.10
2018-09-05T20:44:09.026Z,20.10
2018-09-05T20:46:36.247Z,20.00
2018-09-05T20:49:03.420Z,20.00
2018-09-05T20:51:30.555Z,20.00
2018-09-05T20:53:57.884Z,20.00
2018-09-05T20:56:25.019Z,19.90
2018-09-05T20:58:52.284Z,19.70
2018-09-05T21:01:19.412Z,19.80
2018-09-05T21:03:46.575Z,19.80
2018-09-05T21:06:13.764Z,19.70
2018-09-05T21:08:40.977Z,19.60
2018-09-05T21:11:08.105Z,19.80
2018-09-05T21:13:35.343Z,19.70
2018-09-05T21:16:02.454Z,19.70
2018-09-05T21:18:30.800Z,19.70
2018-09-05T21:20:59.065Z,19.60
2018-09-05T21:23:27.618Z,19.50
2018-09-05T21:25:54.747Z,19.50
2018-09-05T21:28:21.882Z,19.50
2018-09-05T21:30:49.062Z,19.50
2018-09-05T21:33:16.253Z,19.50
2018-09-05T21:35:43.530Z,19.50
2018-09-05T21:38:10.659Z,19.50
2018-09-05T21:40:37.790Z,19.40
2018-09-05T21:43:05.165Z,19.40
2018-09-05T21:45:32.331Z,19.40
2018-09-05T21:47:59.455Z,19.40
2018-09-05T21:50:26.555Z,19.30
2018-09-05T21:52:53.675Z,19.40
2018-09-05T21:55:20.850Z,19.40
2018-09-05T21:57:48.026Z,19.40
2018-09-05T22:00:15.206Z,19.50
2018-09-05T22:02:42.329Z,19.50
2018-09-05T22:05:09.487Z,19.50
2018-09-05T22:07:36.644Z,19.40
2018-09-05T22:10:03.759Z,19.20
2018-09-05T22:12:30.863Z,19.20
2018-09-05T22:14:57.973Z,19.10
2018-09-05T22:17:25.179Z,19.10
2018-09-05T22:19:52.295Z,19.00
2018-09-05T22:22:19.448Z,19.10
2018-09-05T22:24:46.583Z,19.10
2018-09-05T22:27:13.813Z,19.00
2018-09-05T22:29:40.953Z,18.90
2018-09-05T22:32:08.203Z,18.90
2018-09-05T22:34:35.190Z,18.80
2018-09-05T22:37:02.354Z,18.80
2018-09-05T22:39:29.453Z,18.70
2018-09-05T22:41:56.576Z,18.90
2018-09-05T22:44:35.721Z,18.80
2018-09-05T22:48:19.312Z,18.70
2018-09-05T22:51:06.617Z,18.60
2018-09-05T22:53:54.029Z,18.60
2018-09-05T22:56:47.528Z,18.50
2018-09-05T22:59:25.501Z,18.50
2018-09-05T23:02:47.873Z,18.40
2018-09-05T23:07:30.179Z,18.40
2018-09-05T23:10:08.920Z,18.40
2018-09-05T23:12:47.576Z,18.30
2018-09-05T23:15:26.326Z,18.30
2018-09-05T23:18:10.844Z,18.30
2018-09-05T23:20:52.376Z,18.20
2018-09-05T23:23:31.109Z,18.20
2018-09-05T23:25:58.254Z,18.20
2018-09-05T23:28:25.507Z,18.10
2018-09-05T23:30:52.660Z,18.10
2018-09-05T23:33:19.763Z,18.20
2018-09-05T23:35:46.887Z,18.20
2018-09-05T23:38:14.023Z,18.20
2018-09-05T23:40:41.153Z,18.20
2018-09-05T23:43:08.292Z,18.30
2018-09-05T23:45:35.817Z,18.30
2018-09-05T23:48:03.288Z,18.20
2018-09-05T23:50:30.512Z,18.20
2018-09-05T23:52:57.685Z,18.10
2018-09-05T23:55:24.839Z,18.10
2018-09-05T23:57:51.948Z,18.00
